CYNL

METAR CYNL 070900Z AUTO 26006KT 9SM CLR 13/07 A2973 RMK AO1 SLP060
METAR
LOCATION
CYNL
DATE - TIME
070900Z
WIND
260 TRUE @ 6 KNOTS
VISIBILITY
9SM
RUNWAY VISUAL RANGE
NOT REPORTED
WEATHER
CLOUDINESS
CLR
TEMP / DEWPOINT
13 ºC / 7 ºC
ALTIMETER
29.73 in. Hg
RECENT WEATHER
NOT REPORTED
WIND SHEAR
NOT REPORTED
REMARKS
RMK AO1 SLP060
SEA LEVEL PRESSURE: hPa

CYNL

METAR CYNL 070800Z AUTO 25005KT 9SM CLR 13/07 A2974 RMK AO1 SLP062
METAR
LOCATION
CYNL
DATE - TIME
070800Z
WIND
250 TRUE @ 5 KNOTS
VISIBILITY
9SM
RUNWAY VISUAL RANGE
NOT REPORTED
WEATHER
CLOUDINESS
CLR
TEMP / DEWPOINT
13 ºC / 7 ºC
ALTIMETER
29.74 in. Hg
RECENT WEATHER
NOT REPORTED
WIND SHEAR
NOT REPORTED
REMARKS
RMK AO1 SLP062
SEA LEVEL PRESSURE: hPa

CYNL

METAR CYNL 070700Z AUTO 27005KT 9SM CLR 14/07 A2974 RMK AO1 SLP063
METAR
LOCATION
CYNL
DATE - TIME
070700Z
WIND
270 TRUE @ 5 KNOTS
VISIBILITY
9SM
RUNWAY VISUAL RANGE
NOT REPORTED
WEATHER
CLOUDINESS
CLR
TEMP / DEWPOINT
14 ºC / 7 ºC
ALTIMETER
29.74 in. Hg
RECENT WEATHER
NOT REPORTED
WIND SHEAR
NOT REPORTED
REMARKS
RMK AO1 SLP063
SEA LEVEL PRESSURE: hPa

Your time UTC time
 
 
Weather data provided by AXYS Technologies Inc., www.axystechnologies.com
 
Station History